sensor_id;sensor_type;location;lat;lon;timestamp;pressure;altitude;pressure_sealevel;temperature;humidity
75425;BME280;64007;50.632;13.700;2023-04-15T00:00:50;96659.72;;;6.64;100.00
75425;BME280;64007;50.632;13.700;2023-04-15T00:03:16;96676.69;;;6.71;100.00
75425;BME280;64007;50.632;13.700;2023-04-15T00:05:43;96662.38;;;6.74;100.00
75425;BME280;64007;50.632;13.700;2023-04-15T00:08:09;96666.28;;;6.70;100.00
75425;BME280;64007;50.632;13.700;2023-04-15T00:10:35;96658.88;;;6.64;100.00
75425;BME280;64007;50.632;13.700;2023-04-15T00:13:00;96623.19;;;6.69;100.00
75425;BME280;64007;50.632;13.700;2023-04-15T00:15:27;96647.78;;;6.70;100.00
75425;BME280;64007;50.632;13.700;2023-04-15T00:17:52;96661.97;;;6.69;100.00
75425;BME280;64007;50.632;13.700;2023-04-15T00:20:18;96636.94;;;6.73;100.00
75425;BME280;64007;50.632;13.700;2023-04-15T00:22:44;96630.56;;;6.75;100.00
75425;BME280;64007;50.632;13.700;2023-04-15T00:25:10;96664.25;;;6.83;100.00
75425;BME280;64007;50.632;13.700;2023-04-15T00:27:37;96645.06;;;6.81;100.00
75425;BME280;64007;50.632;13.700;2023-04-15T00:30:03;96639.88;;;6.79;100.00
75425;BME280;64007;50.632;13.700;2023-04-15T00:32:29;96650.63;;;6.87;100.00
75425;BME280;64007;50.632;13.700;2023-04-15T00:34:55;96660.50;;;6.85;100.00
75425;BME280;64007;50.632;13.700;2023-04-15T00:37:21;96653.28;;;6.87;100.00
75425;BME280;64007;50.632;13.700;2023-04-15T00:39:47;96651.75;;;6.95;100.00
75425;BME280;64007;50.632;13.700;2023-04-15T00:42:14;96672.03;;;6.84;100.00
75425;BME280;64007;50.632;13.700;2023-04-15T00:44:40;96629.50;;;6.87;100.00
75425;BME280;64007;50.632;13.700;2023-04-15T00:47:05;96642.44;;;6.90;100.00
75425;BME280;64007;50.632;13.700;2023-04-15T00:49:31;96655.66;;;6.90;100.00
75425;BME280;64007;50.632;13.700;2023-04-15T00:51:57;96618.63;;;6.81;100.00
75425;BME280;64007;50.632;13.700;2023-04-15T00:54:23;96608.91;;;6.81;100.00
75425;BME280;64007;50.632;13.700;2023-04-15T00:56:48;96626.16;;;6.85;100.00
75425;BME280;64007;50.632;13.700;2023-04-15T00:59:16;96612.25;;;6.83;100.00
75425;BME280;64007;50.632;13.700;2023-04-15T01:01:43;96617.78;;;6.80;100.00
75425;BME280;64007;50.632;13.700;2023-04-15T01:04:09;96611.09;;;6.76;100.00
75425;BME280;64007;50.632;13.700;2023-04-15T01:06:35;96602.66;;;6.82;100.00
75425;BME280;64007;50.632;13.700;2023-04-15T01:09:01;96604.13;;;6.75;100.00
75425;BME280;64007;50.632;13.700;2023-04-15T01:11:28;96602.75;;;6.71;100.00
75425;BME280;64007;50.632;13.700;2023-04-15T01:13:55;96613.91;;;6.84;100.00
75425;BME280;64007;50.632;13.700;2023-04-15T01:16:21;96576.47;;;6.79;100.00
75425;BME280;64007;50.632;13.700;2023-04-15T01:18:47;96595.44;;;6.84;100.00
75425;BME280;64007;50.632;13.700;2023-04-15T01:21:13;96583.88;;;6.85;100.00
75425;BME280;64007;50.632;13.700;2023-04-15T01:23:39;96574.84;;;6.88;100.00
75425;BME280;64007;50.632;13.700;2023-04-15T01:26:06;96595.28;;;6.86;100.00
75425;BME280;64007;50.632;13.700;2023-04-15T01:28:35;96598.78;;;6.86;100.00
75425;BME280;64007;50.632;13.700;2023-04-15T01:31:09;96620.88;;;6.85;100.00
75425;BME280;64007;50.632;13.700;2023-04-15T01:33:36;96563.31;;;6.99;100.00
75425;BME280;64007;50.632;13.700;2023-04-15T01:36:03;96614.06;;;6.93;100.00
75425;BME280;64007;50.632;13.700;2023-04-15T01:38:30;96615.63;;;7.05;100.00
75425;BME280;64007;50.632;13.700;2023-04-15T01:40:56;96618.66;;;6.90;100.00
75425;BME280;64007;50.632;13.700;2023-04-15T01:43:22;96602.53;;;6.94;100.00
75425;BME280;64007;50.632;13.700;2023-04-15T01:45:48;96609.63;;;6.83;100.00
75425;BME280;64007;50.632;13.700;2023-04-15T01:48:14;96615.88;;;6.82;100.00
75425;BME280;64007;50.632;13.700;2023-04-15T01:50:39;96617.13;;;6.98;100.00
75425;BME280;64007;50.632;13.700;2023-04-15T01:53:05;96608.50;;;6.96;100.00
75425;BME280;64007;50.632;13.700;2023-04-15T01:55:31;96594.59;;;6.94;100.00
75425;BME280;64007;50.632;13.700;2023-04-15T01:57:57;96571.66;;;6.94;100.00
75425;BME280;64007;50.632;13.700;2023-04-15T02:00:22;96592.66;;;6.96;100.00
75425;BME280;64007;50.632;13.700;2023-04-15T02:02:48;96585.72;;;6.95;100.00
75425;BME280;64007;50.632;13.700;2023-04-15T02:05:14;96588.06;;;6.98;100.00
75425;BME280;64007;50.632;13.700;2023-04-15T02:07:44;96579.88;;;7.01;100.00
75425;BME280;64007;50.632;13.700;2023-04-15T02:10:10;96607.81;;;6.94;100.00
75425;BME280;64007;50.632;13.700;2023-04-15T02:12:38;96590.97;;;6.85;100.00
75425;BME280;64007;50.632;13.700;2023-04-15T02:15:04;96597.50;;;6.81;100.00
75425;BME280;64007;50.632;13.700;2023-04-15T02:17:33;96590.78;;;6.77;100.00
75425;BME280;64007;50.632;13.700;2023-04-15T02:19:59;96581.75;;;6.70;100.00
75425;BME280;64007;50.632;13.700;2023-04-15T02:22:25;96598.69;;;6.67;100.00
75425;BME280;64007;50.632;13.700;2023-04-15T02:24:51;96588.56;;;6.72;100.00
75425;BME280;64007;50.632;13.700;2023-04-15T02:27:17;96567.72;;;6.69;100.00
75425;BME280;64007;50.632;13.700;2023-04-15T02:29:43;96570.06;;;6.72;100.00
75425;BME280;64007;50.632;13.700;2023-04-15T02:32:11;96583.00;;;6.75;100.00
75425;BME280;64007;50.632;13.700;2023-04-15T02:34:38;96563.53;;;6.76;100.00
75425;BME280;64007;50.632;13.700;2023-04-15T02:37:10;96563.28;;;6.79;100.00
75425;BME280;64007;50.632;13.700;2023-04-15T02:39:35;96562.47;;;6.88;100.00
75425;BME280;64007;50.632;13.700;2023-04-15T02:42:01;96582.50;;;6.91;100.00
75425;BME280;64007;50.632;13.700;2023-04-15T02:44:27;96558.59;;;6.93;100.00
75425;BME280;64007;50.632;13.700;2023-04-15T02:46:53;96559.41;;;6.83;100.00
75425;BME280;64007;50.632;13.700;2023-04-15T02:49:20;96539.38;;;6.81;100.00
75425;BME280;64007;50.632;13.700;2023-04-15T02:51:46;96574.13;;;6.76;100.00
75425;BME280;64007;50.632;13.700;2023-04-15T02:54:20;96547.97;;;6.73;100.00
75425;BME280;64007;50.632;13.700;2023-04-15T02:56:47;96553.84;;;6.86;100.00
75425;BME280;64007;50.632;13.700;2023-04-15T02:59:14;96538.00;;;6.86;100.00
75425;BME280;64007;50.632;13.700;2023-04-15T03:01:40;96553.31;;;6.93;100.00
75425;BME280;64007;50.632;13.700;2023-04-15T03:04:05;96544.25;;;6.85;100.00
75425;BME280;64007;50.632;13.700;2023-04-15T03:06:34;96552.88;;;6.97;100.00
75425;BME280;64007;50.632;13.700;2023-04-15T03:08:59;96562.47;;;7.08;100.00
75425;BME280;64007;50.632;13.700;2023-04-15T03:11:28;96577.50;;;7.07;100.00
75425;BME280;64007;50.632;13.700;2023-04-15T03:13:54;96571.81;;;7.02;100.00
75425;BME280;64007;50.632;13.700;2023-04-15T03:16:20;96577.63;;;6.96;100.00
75425;BME280;64007;50.632;13.700;2023-04-15T03:18:45;96584.19;;;7.02;100.00
75425;BME280;64007;50.632;13.700;2023-04-15T03:21:11;96593.09;;;7.10;100.00
75425;BME280;64007;50.632;13.700;2023-04-15T03:23:37;96604.50;;;7.11;100.00
75425;BME280;64007;50.632;13.700;2023-04-15T03:26:03;96621.47;;;6.99;100.00
75425;BME280;64007;50.632;13.700;2023-04-15T03:28:30;96606.72;;;6.96;100.00
75425;BME280;64007;50.632;13.700;2023-04-15T03:30:55;96626.19;;;6.95;100.00
75425;BME280;64007;50.632;13.700;2023-04-15T03:33:21;96615.19;;;6.90;100.00
75425;BME280;64007;50.632;13.700;2023-04-15T03:35:47;96611.66;;;6.80;100.00
75425;BME280;64007;50.632;13.700;2023-04-15T03:38:12;96608.09;;;6.90;100.00
75425;BME280;64007;50.632;13.700;2023-04-15T03:40:41;96613.09;;;6.84;100.00
75425;BME280;64007;50.632;13.700;2023-04-15T03:43:07;96610.25;;;6.76;100.00
75425;BME280;64007;50.632;13.700;2023-04-15T03:45:33;96621.22;;;6.71;100.00
75425;BME280;64007;50.632;13.700;2023-04-15T03:47:58;96609.63;;;7.03;100.00
75425;BME280;64007;50.632;13.700;2023-04-15T03:50:24;96621.44;;;6.89;100.00
75425;BME280;64007;50.632;13.700;2023-04-15T03:52:50;96617.13;;;6.98;100.00
75425;BME280;64007;50.632;13.700;2023-04-15T03:55:16;96624.16;;;6.78;100.00
75425;BME280;64007;50.632;13.700;2023-04-15T03:57:41;96611.28;;;6.84;100.00
75425;BME280;64007;50.632;13.700;2023-04-15T04:00:08;96620.25;;;6.72;100.00
75425;BME280;64007;50.632;13.700;2023-04-15T04:02:35;96618.63;;;6.81;100.00
75425;BME280;64007;50.632;13.700;2023-04-15T04:05:01;96629.50;;;6.87;100.00
75425;BME280;64007;50.632;13.700;2023-04-15T04:07:26;96625.00;;;6.78;100.00
75425;BME280;64007;50.632;13.700;2023-04-15T04:09:52;96648.00;;;6.87;100.00
75425;BME280;64007;50.632;13.700;2023-04-15T04:12:18;96670.38;;;6.83;100.00
75425;BME280;64007;50.632;13.700;2023-04-15T04:14:44;96696.03;;;6.72;100.00
75425;BME280;64007;50.632;13.700;2023-04-15T04:17:10;96707.53;;;6.61;100.00
75425;BME280;64007;50.632;13.700;2023-04-15T04:19:36;96716.25;;;6.52;100.00
75425;BME280;64007;50.632;13.700;2023-04-15T04:22:01;96720.16;;;6.37;100.00
75425;BME280;64007;50.632;13.700;2023-04-15T04:24:27;96721.84;;;6.38;100.00
75425;BME280;64007;50.632;13.700;2023-04-15T04:26:52;96725.69;;;6.34;100.00
75425;BME280;64007;50.632;13.700;2023-04-15T04:29:18;96732.78;;;6.33;100.00
75425;BME280;64007;50.632;13.700;2023-04-15T04:31:44;96731.69;;;6.36;100.00
75425;BME280;64007;50.632;13.700;2023-04-15T04:34:10;96736.56;;;6.40;100.00
75425;BME280;64007;50.632;13.700;2023-04-15T04:36:36;96747.75;;;6.44;100.00
75425;BME280;64007;50.632;13.700;2023-04-15T04:39:02;96738.84;;;6.45;100.00
75425;BME280;64007;50.632;13.700;2023-04-15T04:41:28;96747.47;;;6.47;100.00
75425;BME280;64007;50.632;13.700;2023-04-15T04:43:54;96751.78;;;6.48;100.00
75425;BME280;64007;50.632;13.700;2023-04-15T04:46:19;96750.81;;;6.49;100.00
75425;BME280;64007;50.632;13.700;2023-04-15T04:48:46;96754.88;;;6.53;100.00
75425;BME280;64007;50.632;13.700;2023-04-15T04:51:11;96752.63;;;6.48;100.00
75425;BME280;64007;50.632;13.700;2023-04-15T04:53:37;96747.09;;;6.51;100.00
75425;BME280;64007;50.632;13.700;2023-04-15T04:56:03;96740.00;;;6.52;100.00
75425;BME280;64007;50.632;13.700;2023-04-15T04:58:29;96742.50;;;6.53;100.00
75425;BME280;64007;50.632;13.700;2023-04-15T05:00:55;96741.41;;;6.56;100.00
75425;BME280;64007;50.632;13.700;2023-04-15T05:03:21;96722.84;;;6.67;100.00
75425;BME280;64007;50.632;13.700;2023-04-15T05:05:46;96728.22;;;6.86;100.00
75425;BME280;64007;50.632;13.700;2023-04-15T05:08:14;96726.28;;;6.88;100.00
75425;BME280;64007;50.632;13.700;2023-04-15T05:10:40;96720.56;;;6.83;100.00
75425;BME280;64007;50.632;13.700;2023-04-15T05:13:06;96718.63;;;6.85;100.00
75425;BME280;64007;50.632;13.700;2023-04-15T05:15:32;96714.06;;;6.87;100.00
75425;BME280;64007;50.632;13.700;2023-04-15T05:17:59;96714.06;;;6.87;100.00
75425;BME280;64007;50.632;13.700;2023-04-15T05:20:25;96716.44;;;6.90;100.00
75425;BME280;64007;50.632;13.700;2023-04-15T05:22:51;96723.81;;;6.97;100.00
75425;BME280;64007;50.632;13.700;2023-04-15T05:25:16;96713.84;;;7.10;100.00
75425;BME280;64007;50.632;13.700;2023-04-15T05:27:42;96725.25;;;7.10;100.00
75425;BME280;64007;50.632;13.700;2023-04-15T05:30:08;96725.25;;;7.10;100.00
75425;BME280;64007;50.632;13.700;2023-04-15T05:32:34;96719.75;;;7.23;100.00
75425;BME280;64007;50.632;13.700;2023-04-15T05:35:00;96723.66;;;7.38;100.00
75425;BME280;64007;50.632;13.700;2023-04-15T05:37:26;96730.03;;;7.26;100.00
75425;BME280;64007;50.632;13.700;2023-04-15T05:39:51;96736.47;;;7.43;100.00
75425;BME280;64007;50.632;13.700;2023-04-15T05:42:17;96733.13;;;7.31;100.00
75425;BME280;64007;50.632;13.700;2023-04-15T05:44:43;96751.00;;;7.18;100.00
75425;BME280;64007;50.632;13.700;2023-04-15T05:47:09;96759.56;;;7.31;100.00
75425;BME280;64007;50.632;13.700;2023-04-15T05:49:35;96757.63;;;7.33;100.00
75425;BME280;64007;50.632;13.700;2023-04-15T05:52:01;96767.19;;;7.25;100.00
75425;BME280;64007;50.632;13.700;2023-04-15T05:54:27;96761.72;;;7.16;100.00
75425;BME280;64007;50.632;13.700;2023-04-15T05:56:53;96758.50;;;7.13;100.00
75425;BME280;64007;50.632;13.700;2023-04-15T05:59:18;96766.44;;;7.13;100.00
75425;BME280;64007;50.632;13.700;2023-04-15T06:01:44;96766.44;;;7.13;100.00
75425;BME280;64007;50.632;13.700;2023-04-15T06:04:10;96784.09;;;7.12;100.00
75425;BME280;64007;50.632;13.700;2023-04-15T06:06:38;96789.81;;;7.17;100.00
75425;BME280;64007;50.632;13.700;2023-04-15T06:09:04;96791.63;;;7.17;100.00
75425;BME280;64007;50.632;13.700;2023-04-15T06:11:30;96794.28;;;7.17;100.00
75425;BME280;64007;50.632;13.700;2023-04-15T06:13:56;96800.41;;;7.17;100.00
75425;BME280;64007;50.632;13.700;2023-04-15T06:16:22;96805.31;;;7.22;100.00
75425;BME280;64007;50.632;13.700;2023-04-15T06:18:48;96798.78;;;7.26;100.00
75425;BME280;64007;50.632;13.700;2023-04-15T06:21:14;96806.19;;;7.32;100.00
75425;BME280;64007;50.632;13.700;2023-04-15T06:23:40;96808.81;;;7.32;100.00
75425;BME280;64007;50.632;13.700;2023-04-15T06:26:07;96806.44;;;7.29;100.00
75425;BME280;64007;50.632;13.700;2023-04-15T06:28:32;96805.34;;;7.32;100.00
75425;BME280;64007;50.632;13.700;2023-04-15T06:30:58;96800.88;;;7.32;100.00
75425;BME280;64007;50.632;13.700;2023-04-15T06:33:25;96805.22;;;7.43;100.00
75425;BME280;64007;50.632;13.700;2023-04-15T06:35:51;96807.91;;;7.52;100.00
75425;BME280;64007;50.632;13.700;2023-04-15T06:38:17;96812.22;;;7.53;100.00
75425;BME280;64007;50.632;13.700;2023-04-15T06:40:43;96820.25;;;7.42;100.00
75425;BME280;64007;50.632;13.700;2023-04-15T06:43:08;96822.47;;;7.37;100.00
75425;BME280;64007;50.632;13.700;2023-04-15T06:45:35;96831.66;;;7.33;100.00
75425;BME280;64007;50.632;13.700;2023-04-15T06:48:00;96827.75;;;7.37;100.00
75425;BME280;64007;50.632;13.700;2023-04-15T06:52:48;96835.88;;;7.45;100.00
75425;BME280;64007;50.632;13.700;2023-04-15T06:55:13;96838.59;;;7.34;100.00
75425;BME280;64007;50.632;13.700;2023-04-15T06:57:39;96855.34;;;7.14;100.00
75425;BME280;64007;50.632;13.700;2023-04-15T07:00:05;96854.78;;;6.89;100.00
75425;BME280;64007;50.632;13.700;2023-04-15T07:02:32;96856.16;;;6.84;100.00
75425;BME280;64007;50.632;13.700;2023-04-15T07:04:57;96864.69;;;6.76;100.00
75425;BME280;64007;50.632;13.700;2023-04-15T07:07:23;96866.00;;;6.61;100.00
75425;BME280;64007;50.632;13.700;2023-04-15T07:09:50;96869.84;;;6.57;100.00
75425;BME280;64007;50.632;13.700;2023-04-15T07:12:18;96874.22;;;6.47;100.00
75425;BME280;64007;50.632;13.700;2023-04-15T07:14:44;96871.34;;;6.39;100.00
75425;BME280;64007;50.632;13.700;2023-04-15T07:17:09;96880.94;;;6.40;100.00
75425;BME280;64007;50.632;13.700;2023-04-15T07:19:37;96883.72;;;6.38;100.00
75425;BME280;64007;50.632;13.700;2023-04-15T07:22:02;96884.09;;;6.34;100.00
75425;BME280;64007;50.632;13.700;2023-04-15T07:24:28;96892.66;;;6.26;100.00
75425;BME280;64007;50.632;13.700;2023-04-15T07:26:54;96887.28;;;6.16;100.00
75425;BME280;64007;50.632;13.700;2023-04-15T07:29:22;96894.00;;;6.20;100.00
75425;BME280;64007;50.632;13.700;2023-04-15T07:31:47;96889.41;;;6.22;100.00
75425;BME280;64007;50.632;13.700;2023-04-15T07:34:13;96889.88;;;6.27;100.00
75425;BME280;64007;50.632;13.700;2023-04-15T07:36:39;96888.22;;;6.26;100.00
75425;BME280;64007;50.632;13.700;2023-04-15T07:39:05;96903.47;;;6.23;100.00
75425;BME280;64007;50.632;13.700;2023-04-15T07:41:30;96898.31;;;6.21;100.00
75425;BME280;64007;50.632;13.700;2023-04-15T07:43:56;96896.38;;;6.23;100.00
75425;BME280;64007;50.632;13.700;2023-04-15T07:46:22;96900.91;;;6.33;100.00
75425;BME280;64007;50.632;13.700;2023-04-15T07:48:49;96900.88;;;6.44;100.00
75425;BME280;64007;50.632;13.700;2023-04-15T07:51:15;96903.78;;;6.29;100.00
75425;BME280;64007;50.632;13.700;2023-04-15T07:53:42;96913.63;;;6.27;100.00
75425;BME280;64007;50.632;13.700;2023-04-15T07:56:08;96924.69;;;6.21;100.00
75425;BME280;64007;50.632;13.700;2023-04-15T07:58:34;96923.66;;;6.13;100.00
75425;BME280;64007;50.632;13.700;2023-04-15T08:01:00;96929.75;;;6.13;100.00
75425;BME280;64007;50.632;13.700;2023-04-15T08:03:26;96924.56;;;6.23;100.00
75425;BME280;64007;50.632;13.700;2023-04-15T08:05:52;96921.56;;;6.27;100.00
75425;BME280;64007;50.632;13.700;2023-04-15T08:08:18;96925.13;;;6.38;100.00
75425;BME280;64007;50.632;13.700;2023-04-15T08:10:44;96931.88;;;6.31;100.00
75425;BME280;64007;50.632;13.700;2023-04-15T08:13:10;96931.03;;;6.30;100.00
75425;BME280;64007;50.632;13.700;2023-04-15T08:15:36;96926.34;;;6.34;100.00
75425;BME280;64007;50.632;13.700;2023-04-15T08:18:02;96921.03;;;6.45;100.00
75425;BME280;64007;50.632;13.700;2023-04-15T08:20:28;96917.91;;;6.51;100.00
75425;BME280;64007;50.632;13.700;2023-04-15T08:22:54;96920.50;;;6.62;100.00
75425;BME280;64007;50.632;13.700;2023-04-15T08:25:20;96919.97;;;6.68;100.00
75425;BME280;64007;50.632;13.700;2023-04-15T08:27:46;96927.38;;;6.74;100.00
75425;BME280;64007;50.632;13.700;2023-04-15T08:30:12;96922.75;;;6.67;100.00
75425;BME280;64007;50.632;13.700;2023-04-15T08:32:38;96927.63;;;6.82;100.00
75425;BME280;64007;50.632;13.700;2023-04-15T08:35:04;96936.50;;;6.81;100.00
75425;BME280;64007;50.632;13.700;2023-04-15T08:37:30;96937.16;;;6.95;100.00
75425;BME280;64007;50.632;13.700;2023-04-15T08:39:56;96941.72;;;6.93;100.00
75425;BME280;64007;50.632;13.700;2023-04-15T08:42:30;96947.22;;;7.01;100.00
75425;BME280;64007;50.632;13.700;2023-04-15T08:44:59;96945.16;;;7.04;100.00
75425;BME280;64007;50.632;13.700;2023-04-15T08:47:28;96948.81;;;7.13;100.00
75425;BME280;64007;50.632;13.700;2023-04-15T08:49:56;96953.69;;;7.29;100.00
75425;BME280;64007;50.632;13.700;2023-04-15T08:52:25;96946.31;;;7.32;100.00
75425;BME280;64007;50.632;13.700;2023-04-15T08:54:55;96954.50;;;7.29;100.00
75425;BME280;64007;50.632;13.700;2023-04-15T08:57:25;96955.47;;;7.28;100.00
75425;BME280;64007;50.632;13.700;2023-04-15T08:59:53;96957.34;;;7.37;100.00
75425;BME280;64007;50.632;13.700;2023-04-15T09:02:20;96957.53;;;7.45;100.00
75425;BME280;64007;50.632;13.700;2023-04-15T09:04:46;96961.41;;;7.41;100.00
75425;BME280;64007;50.632;13.700;2023-04-15T09:07:12;96973.38;;;7.45;100.00
75425;BME280;64007;50.632;13.700;2023-04-15T09:09:37;96968.53;;;7.50;100.00
75425;BME280;64007;50.632;13.700;2023-04-15T09:12:04;96967.88;;;7.58;100.00
75425;BME280;64007;50.632;13.700;2023-04-15T09:14:30;96967.88;;;7.58;100.00
75425;BME280;64007;50.632;13.700;2023-04-15T09:17:01;96975.25;;;7.54;100.00
75425;BME280;64007;50.632;13.700;2023-04-15T09:19:28;96977.19;;;7.52;100.00
75425;BME280;64007;50.632;13.700;2023-04-15T09:21:56;96971.13;;;7.62;100.00
75425;BME280;64007;50.632;13.700;2023-04-15T09:24:22;96979.03;;;7.82;100.00
75425;BME280;64007;50.632;13.700;2023-04-15T09:26:52;96973.06;;;7.90;100.00
75425;BME280;64007;50.632;13.700;2023-04-15T09:29:19;96978.91;;;7.94;100.00
75425;BME280;64007;50.632;13.700;2023-04-15T09:31:45;96981.78;;;8.02;100.00
75425;BME280;64007;50.632;13.700;2023-04-15T09:34:11;96982.28;;;7.96;100.00
75425;BME280;64007;50.632;13.700;2023-04-15T09:36:51;96988.47;;;8.06;100.00
75425;BME280;64007;50.632;13.700;2023-04-15T09:39:17;96986.41;;;8.19;100.00
75425;BME280;64007;50.632;13.700;2023-04-15T09:41:43;96991.41;;;8.43;100.00
75425;BME280;64007;50.632;13.700;2023-04-15T09:44:25;96993.09;;;8.63;100.00
75425;BME280;64007;50.632;13.700;2023-04-15T09:46:51;96994.09;;;8.72;100.00
75425;BME280;64007;50.632;13.700;2023-04-15T09:49:17;96995.47;;;8.66;100.00
75425;BME280;64007;50.632;13.700;2023-04-15T09:51:43;96992.97;;;8.65;100.00
75425;BME280;64007;50.632;13.700;2023-04-15T09:54:09;96996.75;;;8.62;100.00
75425;BME280;64007;50.632;13.700;2023-04-15T09:56:37;96998.97;;;8.57;100.00
75425;BME280;64007;50.632;13.700;2023-04-15T09:59:06;97002.88;;;8.63;100.00
75425;BME280;64007;50.632;13.700;2023-04-15T10:01:32;97001.22;;;8.71;100.00
75425;BME280;64007;50.632;13.700;2023-04-15T10:04:02;96995.34;;;8.77;100.00
75425;BME280;64007;50.632;13.700;2023-04-15T10:06:28;97003.75;;;8.83;100.00
75425;BME280;64007;50.632;13.700;2023-04-15T10:08:56;97010.72;;;8.84;100.00
75425;BME280;64007;50.632;13.700;2023-04-15T10:11:23;97014.34;;;8.83;100.00
75425;BME280;64007;50.632;13.700;2023-04-15T10:13:50;97012.69;;;8.82;100.00
75425;BME280;64007;50.632;13.700;2023-04-15T10:16:18;97016.28;;;8.71;100.00
75425;BME280;64007;50.632;13.700;2023-04-15T10:18:46;97010.97;;;8.61;100.00
75425;BME280;64007;50.632;13.700;2023-04-15T10:21:12;97019.19;;;8.58;100.00
75425;BME280;64007;50.632;13.700;2023-04-15T10:23:41;97005.09;;;8.48;100.00
75425;BME280;64007;50.632;13.700;2023-04-15T10:26:07;97010.81;;;8.53;100.00
75425;BME280;64007;50.632;13.700;2023-04-15T10:28:34;97015.41;;;8.51;100.00
75425;BME280;64007;50.632;13.700;2023-04-15T10:31:00;97021.28;;;8.64;100.00
75425;BME280;64007;50.632;13.700;2023-04-15T10:33:26;97022.69;;;8.68;100.00
75425;BME280;64007;50.632;13.700;2023-04-15T10:35:54;97014.59;;;8.70;100.00
75425;BME280;64007;50.632;13.700;2023-04-15T10:38:40;97026.78;;;8.82;100.00
75425;BME280;64007;50.632;13.700;2023-04-15T10:41:24;97030.00;;;8.86;100.00
75425;BME280;64007;50.632;13.700;2023-04-15T10:43:55;97031.94;;;8.84;100.00
75425;BME280;64007;50.632;13.700;2023-04-15T10:46:33;97030.53;;;8.89;100.00
75425;BME280;64007;50.632;13.700;2023-04-15T10:49:11;97043.38;;;8.94;100.00
75425;BME280;64007;50.632;13.700;2023-04-15T10:51:42;97046.75;;;8.96;100.00
75425;BME280;64007;50.632;13.700;2023-04-15T10:54:16;97046.75;;;8.96;100.00
75425;BME280;64007;50.632;13.700;2023-04-15T10:57:22;97052.31;;;8.83;94.69
75425;BME280;64007;50.632;13.700;2023-04-15T11:02:50;97054.81;;;8.85;100.00
75425;BME280;64007;50.632;13.700;2023-04-15T11:05:17;97052.31;;;8.93;100.00
75425;BME280;64007;50.632;13.700;2023-04-15T11:07:53;97051.47;;;9.02;100.00
75425;BME280;64007;50.632;13.700;2023-04-15T11:12:47;97055.13;;;9.20;96.89
75425;BME280;64007;50.632;13.700;2023-04-15T11:20:54;97059.59;;;9.39;87.81
75425;BME280;64007;50.632;13.700;2023-04-15T11:23:30;97062.94;;;9.51;83.56
75425;BME280;64007;50.632;13.700;2023-04-15T11:25:57;97060.28;;;9.70;85.38
75425;BME280;64007;50.632;13.700;2023-04-15T11:28:26;97060.94;;;9.91;84.74
75425;BME280;64007;50.632;13.700;2023-04-15T11:30:52;97066.75;;;10.14;82.83
75425;BME280;64007;50.632;13.700;2023-04-15T11:33:20;97067.84;;;10.31;79.89
75425;BME280;64007;50.632;13.700;2023-04-15T11:35:47;97070.06;;;10.35;79.30
75425;BME280;64007;50.632;13.700;2023-04-15T11:38:14;97077.03;;;10.46;78.78
75425;BME280;64007;50.632;13.700;2023-04-15T11:40:42;97077.22;;;10.62;75.93
75425;BME280;64007;50.632;13.700;2023-04-15T11:43:10;97085.00;;;10.74;76.31
75425;BME280;64007;50.632;13.700;2023-04-15T11:45:37;97092.94;;;10.83;77.85
75425;BME280;64007;50.632;13.700;2023-04-15T11:48:10;97090.91;;;10.95;76.21
75425;BME280;64007;50.632;13.700;2023-04-15T11:50:38;97087.56;;;10.93;70.83
75425;BME280;64007;50.632;13.700;2023-04-15T11:53:11;97085.91;;;11.10;75.13
75425;BME280;64007;50.632;13.700;2023-04-15T11:55:42;97096.44;;;11.29;72.44
75425;BME280;64007;50.632;13.700;2023-04-15T12:00:49;97092.13;;;11.81;70.14
75425;BME280;64007;50.632;13.700;2023-04-15T12:06:28;97085.06;;;12.16;66.32
75425;BME280;64007;50.632;13.700;2023-04-15T12:09:19;97095.38;;;11.93;66.10
75425;BME280;64007;50.632;13.700;2023-04-15T12:11:46;97104.19;;;11.93;68.05
75425;BME280;64007;50.632;13.700;2023-04-15T12:16:46;97097.50;;;11.89;68.32
75425;BME280;64007;50.632;13.700;2023-04-15T12:19:14;97099.19;;;11.90;66.94
75425;BME280;64007;50.632;13.700;2023-04-15T12:21:43;97098.44;;;11.80;61.67
75425;BME280;64007;50.632;13.700;2023-04-15T12:24:10;97109.38;;;11.59;67.07
75425;BME280;64007;50.632;13.700;2023-04-15T12:26:43;97104.50;;;11.73;66.60
75425;BME280;64007;50.632;13.700;2023-04-15T12:29:10;97104.00;;;11.69;67.21
75425;BME280;64007;50.632;13.700;2023-04-15T12:31:42;97106.50;;;11.88;65.23
75425;BME280;64007;50.632;13.700;2023-04-15T12:34:11;97116.16;;;11.89;67.17
75425;BME280;64007;50.632;13.700;2023-04-15T12:36:36;97114.94;;;12.28;67.60
75425;BME280;64007;50.632;13.700;2023-04-15T12:39:03;97120.50;;;12.60;63.58
75425;BME280;64007;50.632;13.700;2023-04-15T12:41:30;97121.13;;;12.88;61.85
75425;BME280;64007;50.632;13.700;2023-04-15T12:43:55;97116.22;;;12.41;59.19
75425;BME280;64007;50.632;13.700;2023-04-15T12:46:21;97122.94;;;12.02;62.80
75425;BME280;64007;50.632;13.700;2023-04-15T12:48:49;97123.00;;;12.10;60.51
75425;BME280;64007;50.632;13.700;2023-04-15T12:51:15;97126.25;;;12.47;63.25
75425;BME280;64007;50.632;13.700;2023-04-15T12:53:41;97124.53;;;13.06;63.75
75425;BME280;64007;50.632;13.700;2023-04-15T12:56:06;97121.19;;;13.55;61.23
75425;BME280;64007;50.632;13.700;2023-04-15T12:58:32;97130.75;;;13.90;59.25
75425;BME280;64007;50.632;13.700;2023-04-15T13:00:58;97132.44;;;14.23;61.15
75425;BME280;64007;50.632;13.700;2023-04-15T13:03:24;97119.41;;;14.12;56.43
75425;BME280;64007;50.632;13.700;2023-04-15T13:05:49;97126.56;;;14.52;56.24
75425;BME280;64007;50.632;13.700;2023-04-15T13:08:15;97135.25;;;15.10;56.99
75425;BME280;64007;50.632;13.700;2023-04-15T13:10:42;97127.97;;;15.65;55.69